NH66 weather

Temple Heliport
Temple, New Hampshire, United States

Public forecast

Using degrees Fahrenheit for public forecast. Weather courtesy of forecast.io.

Closest aviation weather report (METAR) to Temple Heliport

Closest report is Jaffrey Airport Silver Ranch Airport, 7.5 nm (13.9 km) W. Retrieved 2019/11/13 00:52 UTC (11 minutes ago):

KAFN 130052Z AUTO 33008G16KT M06/M13 A2991 RMK AO2 SLP148 T10561128

Closest aviation forecast (TAF) to Temple Heliport

Closest forecast is Manchester-Boston Regional Airport, 19.5 nm (36.2 km) ENE. Retrieved 2019-11-13 00:22 UTC (41 minutes ago):

TAF KMHT 122320Z 1300/1324 29009KT P6SM FEW025 SCT150 BKN200 FM130100 31012G20KT P6SM SKC